createdAt,value
2019-04-20T00:00:00.781Z,4.82
2019-04-20T00:02:25.791Z,4.60
2019-04-20T00:04:55.059Z,4.60
2019-04-20T00:07:29.470Z,4.47
2019-04-20T00:10:02.598Z,4.47
2019-04-20T00:12:36.784Z,4.11
2019-04-20T00:14:56.599Z,4.11
2019-04-20T00:17:26.695Z,4.13
2019-04-20T00:19:57.787Z,4.13
2019-04-20T00:22:46.930Z,4.25
2019-04-20T00:25:41.721Z,4.21
2019-04-20T00:28:22.450Z,4.21
2019-04-20T00:30:53.355Z,4.38
2019-04-20T00:33:14.729Z,4.34
2019-04-20T00:35:35.900Z,4.34
2019-04-20T00:38:05.641Z,4.24
2019-04-20T00:40:35.754Z,4.24
2019-04-20T00:43:06.559Z,4.13
2019-04-20T00:45:41.398Z,3.98
2019-04-20T00:48:19.993Z,4.05
2019-04-20T00:50:49.116Z,3.71
2019-04-20T00:53:17.053Z,3.71
2019-04-20T00:55:38.098Z,3.76
2019-04-20T00:58:17.382Z,3.76
2019-04-20T01:01:04.059Z,3.87
2019-04-20T01:03:20.933Z,4.03
2019-04-20T01:06:22.241Z,4.30
2019-04-20T01:08:40.209Z,4.17
2019-04-20T01:11:10.205Z,4.09
2019-04-20T01:13:45.949Z,4.09
2019-04-20T01:16:21.731Z,4.18
2019-04-20T01:18:43.748Z,4.18
2019-04-20T01:21:16.675Z,4.23
2019-04-20T01:23:50.795Z,4.14
2019-04-20T01:26:17.187Z,4.18
2019-04-20T01:28:57.640Z,4.18
2019-04-20T01:31:25.424Z,4.26
2019-04-20T01:33:56.323Z,4.26
2019-04-20T01:36:37.113Z,4.33
2019-04-20T01:39:02.798Z,4.36
2019-04-20T01:41:22.168Z,4.36
2019-04-20T01:43:52.272Z,4.24
2019-04-20T01:46:24.879Z,4.11
2019-04-20T01:48:52.642Z,3.96
2019-04-20T01:51:27.173Z,3.64
2019-04-20T01:54:11.746Z,3.42
2019-04-20T01:56:40.064Z,3.23
2019-04-20T01:59:20.030Z,3.23
2019-04-20T02:01:59.433Z,3.29
2019-04-20T02:04:40.950Z,3.25
2019-04-20T02:07:09.147Z,3.10
2019-04-20T02:09:45.616Z,3.31
2019-04-20T02:12:15.464Z,3.31
2019-04-20T02:14:46.242Z,3.17
2019-04-20T02:17:22.737Z,2.88
2019-04-20T02:20:02.314Z,3.17
2019-04-20T02:22:30.311Z,3.07
2019-04-20T02:24:42.706Z,3.07
2019-04-20T02:27:12.566Z,3.41
2019-04-20T02:30:06.463Z,3.41
2019-04-20T02:32:53.278Z,3.17
2019-04-20T02:35:34.405Z,2.94
2019-04-20T02:38:26.095Z,2.80
2019-04-20T02:40:46.886Z,2.93
2019-04-20T02:43:25.346Z,3.32
2019-04-20T02:45:39.892Z,3.32
2019-04-20T02:48:08.138Z,3.14
2019-04-20T02:50:44.556Z,3.15
2019-04-20T02:58:07.041Z,3.27
2019-04-20T03:00:35.222Z,3.27
2019-04-20T03:02:52.883Z,3.16
2019-04-20T03:05:28.321Z,2.94
2019-04-20T03:08:02.779Z,2.94
2019-04-20T03:10:44.634Z,2.77
2019-04-20T03:13:08.593Z,2.74
2019-04-20T03:15:37.709Z,2.65
2019-04-20T03:18:08.814Z,2.74
2019-04-20T03:20:36.824Z,2.75
2019-04-20T03:25:55.962Z,2.74
2019-04-20T03:28:31.009Z,2.74
2019-04-20T03:34:00.840Z,2.60
2019-04-20T03:36:19.639Z,2.57
2019-04-20T03:38:38.461Z,2.41
2019-04-20T03:41:04.019Z,2.33
2019-04-20T03:43:20.187Z,2.38
2019-04-20T03:45:56.158Z,2.46
2019-04-20T03:48:39.357Z,2.66
2019-04-20T03:51:16.334Z,2.53
2019-04-20T03:53:39.252Z,2.50
2019-04-20T03:56:34.636Z,2.54
2019-04-20T03:59:11.899Z,2.39
2019-04-20T04:02:24.609Z,2.46
2019-04-20T04:04:54.746Z,2.34
2019-04-20T04:07:18.275Z,2.22
2019-04-20T04:09:56.165Z,2.23
2019-04-20T04:12:46.795Z,2.18
2019-04-20T04:15:14.894Z,2.10
2019-04-20T04:17:45.579Z,2.07
2019-04-20T04:20:17.803Z,2.26
2019-04-20T04:23:07.936Z,2.53
2019-04-20T04:25:25.038Z,2.54
2019-04-20T04:28:03.899Z,2.45
2019-04-20T04:30:33.065Z,2.41
2019-04-20T04:33:37.895Z,2.55
2019-04-20T04:35:31.362Z,2.68
2019-04-20T04:38:05.804Z,2.98
2019-04-20T04:40:49.862Z,2.98
2019-04-20T04:43:10.241Z,2.93
2019-04-20T04:45:26.557Z,3.06
2019-04-20T04:47:53.676Z,3.40
2019-04-20T04:50:26.222Z,3.36
2019-04-20T04:53:04.117Z,3.52
2019-04-20T04:55:36.311Z,3.57
2019-04-20T04:57:55.773Z,3.50
2019-04-20T05:00:28.229Z,3.53
2019-04-20T05:03:02.020Z,3.53
2019-04-20T05:05:56.135Z,3.66
2019-04-20T05:08:17.892Z,3.66
2019-04-20T05:10:39.281Z,3.69
2019-04-20T05:13:09.138Z,3.66
2019-04-20T05:15:57.412Z,3.71
2019-04-20T05:18:34.730Z,3.74
2019-04-20T05:21:04.404Z,3.66
2019-04-20T05:23:47.890Z,3.76
2019-04-20T05:26:57.484Z,3.74
2019-04-20T05:29:08.533Z,3.75
2019-04-20T05:31:40.417Z,3.95
2019-04-20T05:34:29.523Z,3.96
2019-04-20T05:36:50.329Z,3.97
2019-04-20T05:39:29.796Z,4.27
2019-04-20T05:41:51.517Z,4.38
2019-04-20T05:44:26.283Z,4.38
2019-04-20T05:47:00.941Z,4.51
2019-04-20T05:49:31.674Z,4.51
2019-04-20T05:52:10.447Z,4.73
2019-04-20T05:54:40.364Z,5.06
2019-04-20T05:57:07.817Z,5.06
2019-04-20T05:59:45.413Z,5.20
2019-04-20T06:02:09.719Z,5.29
2019-04-20T06:04:55.223Z,5.29
2019-04-20T06:07:09.458Z,5.31
2019-04-20T06:09:42.953Z,5.31
2019-04-20T06:14:55.896Z,5.46
2019-04-20T06:17:40.090Z,5.63
2019-04-20T06:20:12.631Z,5.81
2019-04-20T06:22:42.780Z,5.97
2019-04-20T06:27:51.192Z,6.38
2019-04-20T06:30:13.622Z,6.49
2019-04-20T06:36:17.233Z,6.93
2019-04-20T06:38:49.699Z,7.34
2019-04-20T06:41:06.311Z,7.34
2019-04-20T06:43:33.336Z,7.55
2019-04-20T06:46:04.321Z,7.92
2019-04-20T06:48:35.317Z,8.12
2019-04-20T06:50:57.121Z,8.51
2019-04-20T06:53:45.363Z,8.78
2019-04-20T06:56:15.694Z,9.02
2019-04-20T07:01:11.007Z,9.33
2019-04-20T07:04:10.754Z,9.58
2019-04-20T07:06:30.720Z,9.71
2019-04-20T07:11:18.531Z,9.99
2019-04-20T07:13:35.914Z,10.17
2019-04-20T07:16:21.580Z,10.31
2019-04-20T07:19:09.443Z,10.48
2019-04-20T07:22:06.004Z,10.63
2019-04-20T07:24:25.160Z,10.86
2019-04-20T07:26:55.847Z,10.93
2019-04-20T07:29:31.942Z,11.05
2019-04-20T07:31:50.068Z,11.11
2019-04-20T07:34:23.370Z,11.33
2019-04-20T07:37:21.647Z,11.46
2019-04-20T07:39:27.942Z,11.56
2019-04-20T07:42:04.522Z,11.65
2019-04-20T07:44:34.767Z,11.81
2019-04-20T07:47:11.738Z,12.01
2019-04-20T07:49:32.934Z,11.99
2019-04-20T07:51:43.863Z,12.11
2019-04-20T07:54:40.132Z,12.30
2019-04-20T07:57:01.831Z,12.33
2019-04-20T07:59:23.366Z,12.49
2019-04-20T08:02:39.076Z,12.54
2019-04-20T08:05:21.912Z,12.67
2019-04-20T08:07:45.710Z,12.81
2019-04-20T08:10:12.215Z,13.03
2019-04-20T08:13:02.375Z,13.15
2019-04-20T08:15:44.524Z,13.23
2019-04-20T08:18:17.998Z,13.36
2019-04-20T08:20:25.736Z,13.44
2019-04-20T08:22:58.638Z,13.55
2019-04-20T08:25:23.520Z,13.55
2019-04-20T08:28:19.291Z,13.58
2019-04-20T08:31:15.309Z,13.79
2019-04-20T08:34:04.832Z,13.95
2019-04-20T08:36:22.822Z,14.08
2019-04-20T08:39:12.727Z,14.18
2019-04-20T08:41:17.957Z,14.27
2019-04-20T08:44:06.440Z,14.51
2019-04-20T08:46:30.925Z,14.64
2019-04-20T08:48:56.707Z,14.69
2019-04-20T08:51:25.964Z,14.74
2019-04-20T08:53:53.331Z,14.84
2019-04-20T08:56:19.751Z,14.94
2019-04-20T08:58:37.023Z,15.23
2019-04-20T09:01:08.623Z,15.20
2019-04-20T09:03:46.362Z,15.04
2019-04-20T09:06:23.811Z,14.99
2019-04-20T09:08:50.325Z,15.03
2019-04-20T09:11:24.486Z,15.22
2019-04-20T09:13:46.186Z,15.11
2019-04-20T09:16:10.856Z,15.19
2019-04-20T09:18:50.551Z,15.33
2019-04-20T09:21:24.348Z,15.29
2019-04-20T09:24:10.785Z,15.43
2019-04-20T09:26:37.588Z,15.62
2019-04-20T09:29:12.560Z,15.81
2019-04-20T09:31:44.823Z,15.60
2019-04-20T09:34:42.389Z,15.95
2019-04-20T09:37:29.655Z,16.28
2019-04-20T09:40:21.645Z,16.39
2019-04-20T09:42:50.663Z,16.64
2019-04-20T09:45:35.007Z,16.29
2019-04-20T09:47:56.454Z,16.90
2019-04-20T09:50:45.014Z,17.65
2019-04-20T09:53:10.182Z,18.00
2019-04-20T09:55:38.173Z,18.14
2019-04-20T09:58:09.534Z,18.13
2019-04-20T10:00:56.832Z,18.48
2019-04-20T10:03:11.253Z,18.57
2019-04-20T10:05:41.194Z,18.73
2019-04-20T10:08:11.390Z,18.56
2019-04-20T10:10:42.635Z,18.89
2019-04-20T10:13:11.254Z,19.25
2019-04-20T10:15:41.569Z,19.35
2019-04-20T10:18:12.029Z,19.61
2019-04-20T10:20:43.435Z,19.88
2019-04-20T10:23:12.469Z,19.48
2019-04-20T10:25:42.509Z,19.15
2019-04-20T10:28:11.818Z,19.63
2019-04-20T10:30:40.871Z,19.76
2019-04-20T10:33:10.011Z,20.24
2019-04-20T10:35:39.487Z,19.70
2019-04-20T10:38:13.747Z,19.60
2019-04-20T10:40:54.041Z,20.33
2019-04-20T10:43:14.196Z,20.57
2019-04-20T10:45:44.748Z,20.18
2019-04-20T10:48:15.137Z,20.75
2019-04-20T10:50:45.084Z,20.60
2019-04-20T10:53:14.576Z,20.11
2019-04-20T10:55:43.468Z,20.31
2019-04-20T10:58:13.604Z,20.64
2019-04-20T11:00:44.313Z,20.16
2019-04-20T11:03:15.550Z,20.62
2019-04-20T11:05:45.062Z,20.57
2019-04-20T11:08:14.854Z,21.37
2019-04-20T11:10:55.585Z,20.39
2019-04-20T11:13:15.234Z,20.12
2019-04-20T11:15:46.557Z,20.14
2019-04-20T11:18:15.533Z,20.04
2019-04-20T11:20:45.603Z,20.56
2019-04-20T11:23:15.842Z,20.11
2019-04-20T11:25:46.292Z,20.22
2019-04-20T11:28:16.614Z,20.98
2019-04-20T11:30:46.284Z,21.44
2019-04-20T11:33:16.098Z,21.08
2019-04-20T11:35:46.477Z,21.08
2019-04-20T11:38:17.267Z,20.52
2019-04-20T11:40:47.037Z,20.65
2019-04-20T11:43:17.792Z,21.52
2019-04-20T11:45:46.896Z,21.59
2019-04-20T11:48:15.936Z,21.73
2019-04-20T11:50:45.470Z,22.20
2019-04-20T11:53:15.306Z,22.10
2019-04-20T11:55:44.647Z,21.56
2019-04-20T11:58:14.216Z,21.29
2019-04-20T12:00:56.288Z,21.25
2019-04-20T12:03:31.095Z,21.30
2019-04-20T12:05:57.909Z,22.01
2019-04-20T12:08:24.967Z,22.18
2019-04-20T12:10:57.744Z,21.57
2019-04-20T12:13:24.814Z,21.91
2019-04-20T12:15:53.870Z,22.42
2019-04-20T12:18:23.411Z,22.28
2019-04-20T12:20:52.596Z,21.72
2019-04-20T12:23:22.342Z,21.85
2019-04-20T12:25:52.368Z,22.14
2019-04-20T12:28:21.975Z,21.51
2019-04-20T12:30:51.503Z,21.38
2019-04-20T12:33:20.609Z,22.12
2019-04-20T12:35:50.098Z,22.46
2019-04-20T12:38:19.251Z,21.64
2019-04-20T12:40:48.456Z,22.61
2019-04-20T12:43:17.608Z,22.44
2019-04-20T12:45:47.697Z,23.15
2019-04-20T12:48:17.635Z,22.45
2019-04-20T12:50:47.783Z,22.26
2019-04-20T12:53:17.122Z,22.66
2019-04-20T12:55:46.526Z,22.06
2019-04-20T12:58:16.620Z,22.37
2019-04-20T13:00:49.669Z,22.51
2019-04-20T13:03:19.333Z,21.60
2019-04-20T13:05:50.050Z,21.86
2019-04-20T13:08:28.611Z,21.50
2019-04-20T13:10:58.364Z,21.38
2019-04-20T13:13:50.326Z,22.41
2019-04-20T13:16:26.117Z,21.97
2019-04-20T13:19:03.547Z,22.72
2019-04-20T13:21:32.725Z,22.88
2019-04-20T13:24:03.093Z,23.45
2019-04-20T13:26:33.189Z,23.02
2019-04-20T13:29:02.558Z,22.19
2019-04-20T13:31:31.707Z,22.58
2019-04-20T13:34:01.497Z,21.32
2019-04-20T13:36:30.649Z,22.02
2019-04-20T13:38:59.656Z,21.18
2019-04-20T13:41:29.809Z,22.24
2019-04-20T13:44:01.232Z,22.14
2019-04-20T13:46:29.284Z,21.90
2019-04-20T13:48:58.015Z,21.28
2019-04-20T13:51:27.003Z,20.96
2019-04-20T13:53:56.976Z,21.32
2019-04-20T13:56:28.006Z,21.10
2019-04-20T13:59:10.061Z,21.09
2019-04-20T14:02:08.515Z,21.47
2019-04-20T14:04:42.455Z,21.93
2019-04-20T14:07:15.028Z,21.52
2019-04-20T14:09:41.776Z,21.61
2019-04-20T14:12:21.994Z,22.06
2019-04-20T14:14:41.407Z,21.11
2019-04-20T14:17:10.801Z,21.87
2019-04-20T14:19:39.515Z,22.13
2019-04-20T14:22:08.483Z,22.44
2019-04-20T14:24:37.477Z,22.40
2019-04-20T14:27:06.634Z,22.20
2019-04-20T14:29:36.997Z,22.05
2019-04-20T14:32:07.727Z,22.30
2019-04-20T14:34:36.635Z,22.63
2019-04-20T14:37:06.900Z,23.42
2019-04-20T14:39:36.410Z,22.56
2019-04-20T14:42:06.627Z,22.37
2019-04-20T14:44:37.378Z,22.83
2019-04-20T14:47:06.187Z,23.39
2019-04-20T14:49:35.085Z,23.31
2019-04-20T14:52:04.540Z,23.59
2019-04-20T14:54:35.093Z,23.56
2019-04-20T14:57:05.424Z,22.97
2019-04-20T14:59:37.941Z,23.05
2019-04-20T15:02:12.694Z,22.98
2019-04-20T15:04:43.124Z,22.88
2019-04-20T15:07:12.992Z,22.96
2019-04-20T15:09:42.828Z,23.20
2019-04-20T15:12:12.934Z,23.29
2019-04-20T15:14:42.711Z,22.64
2019-04-20T15:17:15.176Z,23.28
2019-04-20T15:20:07.463Z,23.35
2019-04-20T15:22:43.389Z,23.63
2019-04-20T15:25:13.731Z,23.04
2019-04-20T15:27:45.979Z,23.24
2019-04-20T15:30:14.155Z,22.62
2019-04-20T15:32:43.277Z,22.41
2019-04-20T15:35:14.038Z,22.16
2019-04-20T15:37:44.928Z,22.24
2019-04-20T15:40:15.107Z,22.49
2019-04-20T15:42:56.053Z,22.94
2019-04-20T15:45:16.441Z,22.40
2019-04-20T15:47:45.838Z,23.13
2019-04-20T15:50:15.985Z,22.64
2019-04-20T15:52:51.023Z,22.96
2019-04-20T15:55:22.673Z,23.34
2019-04-20T15:57:46.633Z,22.59
2019-04-20T16:00:16.315Z,21.82
2019-04-20T16:02:49.476Z,21.98
2019-04-20T16:05:47.177Z,22.47
2019-04-20T16:08:36.740Z,21.82
2019-04-20T16:11:07.031Z,22.06
2019-04-20T16:13:40.270Z,22.07
2019-04-20T16:16:07.907Z,21.98
2019-04-20T16:18:37.213Z,21.87
2019-04-20T16:21:13.360Z,21.82
2019-04-20T16:23:48.525Z,21.50
2019-04-20T16:26:29.551Z,21.52
2019-04-20T16:28:59.709Z,21.75
2019-04-20T16:31:28.895Z,21.61
2019-04-20T16:33:58.799Z,21.44
2019-04-20T16:36:28.498Z,21.32
2019-04-20T16:38:57.675Z,21.21
2019-04-20T16:41:26.494Z,20.42
2019-04-20T16:43:55.452Z,21.42
2019-04-20T16:46:25.824Z,21.00
2019-04-20T16:48:55.133Z,20.92
2019-04-20T16:51:25.117Z,21.34
2019-04-20T16:53:54.423Z,20.58
2019-04-20T16:56:24.437Z,21.13
2019-04-20T16:58:59.370Z,20.45
2019-04-20T17:01:23.693Z,20.80
2019-04-20T17:04:01.892Z,20.19
2019-04-20T17:06:24.233Z,20.06
2019-04-20T17:08:54.527Z,20.41
2019-04-20T17:11:23.853Z,20.12
2019-04-20T17:13:56.207Z,19.59
2019-04-20T17:16:23.841Z,20.56
2019-04-20T17:18:53.043Z,19.87
2019-04-20T17:21:25.848Z,19.71
2019-04-20T17:23:53.243Z,19.36
2019-04-20T17:26:32.786Z,19.34
2019-04-20T17:29:08.257Z,19.23
2019-04-20T17:31:53.757Z,18.99
2019-04-20T17:34:41.518Z,19.07
2019-04-20T17:36:54.635Z,18.88
2019-04-20T17:39:31.723Z,18.87
2019-04-20T17:42:13.251Z,18.59
2019-04-20T17:44:42.623Z,18.51
2019-04-20T17:47:13.609Z,18.24
2019-04-20T17:49:41.233Z,17.72
2019-04-20T17:52:22.308Z,17.46
2019-04-20T17:54:35.625Z,17.23
2019-04-20T17:57:04.705Z,17.11
2019-04-20T17:59:34.629Z,16.79
2019-04-20T18:02:45.967Z,16.61
2019-04-20T18:05:28.407Z,16.32
2019-04-20T18:07:56.564Z,16.13
2019-04-20T18:10:25.967Z,16.35
2019-04-20T18:12:44.538Z,15.66
2019-04-20T18:15:31.454Z,15.37
2019-04-20T18:18:28.293Z,15.08
2019-04-20T18:20:54.901Z,14.83
2019-04-20T18:23:33.322Z,14.73
2019-04-20T18:26:21.253Z,14.58
2019-04-20T18:28:40.158Z,14.25
2019-04-20T18:31:11.224Z,14.24
2019-04-20T18:33:42.418Z,14.13
2019-04-20T18:36:13.276Z,13.91
2019-04-20T18:38:49.893Z,13.84
2019-04-20T18:41:20.951Z,13.77
2019-04-20T18:43:48.835Z,13.46
2019-04-20T18:46:28.082Z,13.68
2019-04-20T18:49:01.086Z,13.56
2019-04-20T18:51:15.398Z,13.25
2019-04-20T18:53:48.261Z,13.12
2019-04-20T18:56:17.012Z,13.06
2019-04-20T18:58:46.937Z,12.94
2019-04-20T19:01:17.050Z,12.90
2019-04-20T19:03:47.714Z,12.79
2019-04-20T19:06:16.372Z,12.70
2019-04-20T19:08:49.974Z,12.53
2019-04-20T19:11:19.799Z,12.49
2019-04-20T19:13:56.437Z,12.39
2019-04-20T19:16:42.038Z,12.28
2019-04-20T19:19:22.050Z,12.19
2019-04-20T19:21:41.015Z,12.15
2019-04-20T19:24:13.224Z,12.07
2019-04-20T19:26:47.664Z,12.12
2019-04-20T19:29:19.083Z,11.94
2019-04-20T19:31:57.353Z,11.84
2019-04-20T19:34:29.580Z,11.79
2019-04-20T19:36:58.027Z,11.83
2019-04-20T19:39:26.016Z,11.77
2019-04-20T19:41:51.652Z,11.66
2019-04-20T19:44:22.613Z,11.59
2019-04-20T19:47:06.497Z,11.48
2019-04-20T19:49:26.784Z,11.41
2019-04-20T19:52:20.223Z,11.29
2019-04-20T19:54:35.523Z,11.34
2019-04-20T19:57:01.334Z,11.28
2019-04-20T19:59:26.087Z,11.28
2019-04-20T20:01:47.691Z,11.22
2019-04-20T20:04:17.567Z,11.09
2019-04-20T20:06:51.799Z,11.17
2019-04-20T20:09:18.299Z,11.18
2019-04-20T20:11:49.522Z,11.19
2019-04-20T20:14:25.549Z,11.07
2019-04-20T20:17:05.393Z,11.04
2019-04-20T20:19:32.504Z,10.83
2019-04-20T20:22:04.500Z,10.75
2019-04-20T20:24:21.479Z,10.75
2019-04-20T20:26:57.886Z,10.86
2019-04-20T20:29:30.528Z,10.79
2019-04-20T20:32:08.490Z,11.01
2019-04-20T20:34:30.946Z,10.83
2019-04-20T20:36:59.810Z,10.61
2019-04-20T20:39:29.598Z,10.51
2019-04-20T20:42:10.093Z,10.36
2019-04-20T20:44:38.012Z,10.27
2019-04-20T20:47:07.126Z,10.19
2019-04-20T20:49:48.781Z,10.03
2019-04-20T20:52:20.261Z,9.98
2019-04-20T20:54:41.265Z,9.90
2019-04-20T20:57:05.673Z,9.88
2019-04-20T20:59:40.247Z,10.16
2019-04-20T21:02:06.461Z,10.08
2019-04-20T21:04:30.074Z,9.92
2019-04-20T21:07:00.494Z,10.03
2019-04-20T21:09:29.696Z,9.86
2019-04-20T21:12:04.308Z,9.64
2019-04-20T21:14:32.934Z,9.79
2019-04-20T21:17:05.422Z,9.71
2019-04-20T21:19:50.205Z,9.84
2019-04-20T21:22:08.426Z,9.77
2019-04-20T21:24:35.804Z,9.86
2019-04-20T21:27:07.946Z,9.90
2019-04-20T21:29:43.104Z,10.01
2019-04-20T21:32:12.085Z,9.99
2019-04-20T21:34:36.446Z,9.82
2019-04-20T21:37:10.617Z,9.74
2019-04-20T21:39:44.147Z,9.72
2019-04-20T21:42:12.482Z,9.55
2019-04-20T21:44:41.408Z,9.63
2019-04-20T21:47:09.173Z,9.31
2019-04-20T21:49:49.732Z,9.11
2019-04-20T21:52:20.828Z,9.29
2019-04-20T21:54:40.102Z,9.35
2019-04-20T21:57:11.511Z,9.30
2019-04-20T21:59:44.624Z,8.91
2019-04-20T22:02:18.590Z,8.48
2019-04-20T22:04:41.150Z,8.54
2019-04-20T22:07:10.409Z,8.65
2019-04-20T22:09:45.304Z,8.61
2019-04-20T22:12:09.907Z,8.39
2019-04-20T22:14:39.864Z,8.37
2019-04-20T22:17:09.802Z,8.31
2019-04-20T22:19:45.893Z,8.66
2019-04-20T22:22:18.461Z,8.71
2019-04-20T22:24:56.418Z,8.32
2019-04-20T22:27:20.125Z,7.78
2019-04-20T22:29:41.825Z,7.53
2019-04-20T22:32:14.854Z,7.39
2019-04-20T22:34:41.809Z,7.33
2019-04-20T22:37:15.319Z,7.36
2019-04-20T22:39:50.411Z,7.36
2019-04-20T22:42:17.912Z,7.49
2019-04-20T22:44:47.902Z,7.68
2019-04-20T22:47:23.084Z,7.52
2019-04-20T22:50:11.864Z,7.52
2019-04-20T22:52:34.773Z,7.67
2019-04-20T22:55:10.044Z,7.46
2019-04-20T22:57:36.305Z,7.46
2019-04-20T23:00:01.890Z,7.72
2019-04-20T23:02:22.967Z,7.72
2019-04-20T23:04:50.931Z,7.66
2019-04-20T23:07:20.848Z,7.69
2019-04-20T23:09:54.365Z,7.66
2019-04-20T23:12:23.363Z,7.66
2019-04-20T23:14:52.324Z,7.75
2019-04-20T23:17:27.223Z,7.76
2019-04-20T23:19:57.331Z,7.79
2019-04-20T23:22:23.099Z,7.47
2019-04-20T23:24:53.316Z,7.31
2019-04-20T23:27:27.255Z,7.17
2019-04-20T23:29:53.219Z,7.20
2019-04-20T23:32:26.128Z,7.20
2019-04-20T23:34:59.778Z,7.16
2019-04-20T23:37:29.899Z,7.16
2019-04-20T23:39:54.816Z,7.11
2019-04-20T23:42:34.901Z,7.11
2019-04-20T23:45:09.462Z,6.97
2019-04-20T23:47:46.460Z,7.24
2019-04-20T23:50:35.493Z,7.13
2019-04-20T23:53:06.690Z,7.13
2019-04-20T23:55:16.992Z,6.98
2019-04-20T23:57:50.504Z,6.74
